Time;durP1;ratioP1;P1;durP2;ratioP2;P2;SDS_P1;SDS_P2;PMS_P1;PMS_P2;Temp;Humidity;BMP_temperature;BMP_pressure;BME280_temperature;BME280_humidity;BME280_pressure;Samples;Min_cycle;Max_cycle;Signal;HPM_P1;HPM_P2
2022/03/21 00:01:26;;;;;;;6.60;1.60;;;22.70;99.90;;;;;;5091798;28;20024;-77
2022/03/21 00:03:54;;;;;;;4.90;1.38;;;22.60;99.90;;;;;;5091860;28;20392;-78
2022/03/21 00:06:21;;;;;;;4.75;1.60;;;22.50;99.90;;;;;;5092054;28;20069;-76
2022/03/21 00:08:48;;;;;;;7.45;1.65;;;22.50;99.90;;;;;;5093671;28;20019;-76
2022/03/21 00:11:16;;;;;;;4.80;1.10;;;22.30;99.90;;;;;;5093114;28;20458;-77
2022/03/21 00:13:43;;;;;;;6.78;1.45;;;22.40;99.90;;;;;;5092236;28;20031;-77
2022/03/21 00:16:12;;;;;;;7.45;1.80;;;22.50;99.90;;;;;;5092675;28;20439;-77
2022/03/21 00:18:40;;;;;;;5.93;1.50;;;22.70;99.90;;;;;;5092530;28;20042;-77
2022/03/21 00:21:07;;;;;;;7.05;1.70;;;22.90;99.90;;;;;;5093464;28;20142;-77
2022/03/21 00:23:35;;;;;;;6.35;1.83;;;22.80;99.90;;;;;;5092428;28;20031;-76
2022/03/21 00:26:03;;;;;;;8.73;1.60;;;22.70;99.90;;;;;;5093689;28;20020;-76
2022/03/21 00:28:30;;;;;;;6.50;0.98;;;22.80;99.90;;;;;;5093484;28;20025;-76
2022/03/21 00:30:58;;;;;;;3.85;1.10;;;23.00;99.90;;;;;;5093210;28;20095;-76
2022/03/21 00:33:26;;;;;;;8.38;1.40;;;23.10;99.90;;;;;;5093432;28;20044;-77
2022/03/21 00:35:53;;;;;;;6.85;1.40;;;23.10;99.90;;;;;;5091765;28;20576;-77
2022/03/21 00:38:21;;;;;;;6.57;1.63;;;23.00;99.90;;;;;;5091930;28;20089;-78
2022/03/21 00:40:49;;;;;;;6.68;1.25;;;23.40;99.90;;;;;;5093116;28;20020;-77
2022/03/21 00:43:21;;;;;;;7.30;1.25;;;23.90;99.90;;;;;;5092242;28;20426;-77
2022/03/21 00:45:52;;;;;;;6.07;1.25;;;24.00;99.90;;;;;;5092390;28;20027;-77
2022/03/21 00:48:21;;;;;;;6.93;1.38;;;24.00;99.90;;;;;;5092304;28;20502;-78
2022/03/21 00:50:48;;;;;;;5.88;1.25;;;24.20;99.90;;;;;;5093599;28;20020;-77
2022/03/21 00:53:16;;;;;;;6.47;1.83;;;24.60;99.90;;;;;;5093332;28;20024;-77
2022/03/21 00:55:45;;;;;;;6.15;1.60;;;24.50;99.90;;;;;;5093016;28;20027;-77
2022/03/21 00:58:13;;;;;;;7.63;1.40;;;24.40;99.90;;;;;;5093068;28;20035;-77
2022/03/21 01:00:42;;;;;;;8.73;1.25;;;24.20;99.90;;;;;;5093257;28;20149;-78
2022/03/21 01:03:10;;;;;;;8.90;1.85;;;24.10;99.90;;;;;;5092882;28;20069;-77
2022/03/21 01:05:38;;;;;;;8.98;1.65;;;24.20;99.90;;;;;;5091381;28;20016;-78
2022/03/21 01:08:06;;;;;;;6.35;1.42;;;24.70;99.90;;;;;;5091262;28;20561;-78
2022/03/21 01:10:35;;;;;;;10.80;2.25;;;25.40;99.90;;;;;;5092768;28;20024;-78
2022/03/21 01:13:02;;;;;;;9.25;1.90;;;25.70;99.90;;;;;;5092692;28;20140;-78
2022/03/21 01:15:30;;;;;;;8.80;1.90;;;25.60;99.90;;;;;;5091567;28;20028;-78
2022/03/21 01:17:58;;;;;;;6.10;1.40;;;25.50;99.90;;;;;;5091100;28;20119;-77
2022/03/21 01:20:26;;;;;;;5.50;1.25;;;25.40;99.90;;;;;;5092685;28;20077;-78
2022/03/21 01:22:54;;;;;;;6.35;1.42;;;25.10;99.90;;;;;;5092931;28;20016;-78
2022/03/21 01:25:21;;;;;;;13.63;3.00;;;25.00;99.90;;;;;;5092548;28;20111;-78
2022/03/21 01:27:49;;;;;;;5.63;1.00;;;25.40;99.90;;;;;;5092500;28;20024;-79
2022/03/21 01:30:17;;;;;;;4.88;0.98;;;25.60;99.90;;;;;;5091923;28;20027;-78
2022/03/21 01:32:45;;;;;;;4.90;1.67;;;25.80;99.90;;;;;;5092783;28;20052;-79
2022/03/21 01:35:15;;;;;;;5.90;1.58;;;25.90;99.90;;;;;;5095300;28;20060;-80
2022/03/21 01:37:43;;;;;;;9.68;1.95;;;26.10;99.90;;;;;;5095438;28;20515;-77
2022/03/21 01:40:12;;;;;;;7.07;1.65;;;26.00;99.90;;;;;;5095762;28;20125;-79
2022/03/21 01:42:43;;;;;;;9.30;1.77;;;26.10;99.90;;;;;;5096261;28;20484;-78
2022/03/21 01:45:12;;;;;;;6.90;1.48;;;26.50;99.90;;;;;;5079037;28;20472;-79
2022/03/21 01:47:41;;;;;;;19.90;8.95;;;26.70;99.90;;;;;;5094996;28;20077;-79
2022/03/21 01:50:11;;;;;;;36.17;13.55;;;26.40;99.90;;;;;;5095048;28;20110;-79
2022/03/21 01:52:41;;;;;;;22.23;8.55;;;26.00;99.90;;;;;;5095980;28;20031;-78
2022/03/21 01:57:57;;;;;;;13.93;3.45;;;25.90;99.90;;;;;;5096044;28;20051;-79
2022/03/21 02:00:24;;;;;;;5.30;1.13;;;25.80;99.90;;;;;;5095516;28;20020;-80
2022/03/21 02:02:52;;;;;;;7.05;2.60;;;25.40;99.90;;;;;;5095285;28;20016;-79
2022/03/21 02:05:20;;;;;;;5.43;1.50;;;25.40;99.90;;;;;;5094252;28;20030;-80
2022/03/21 02:07:47;;;;;;;7.10;2.17;;;25.20;99.90;;;;;;5095242;28;20021;-80
2022/03/21 02:10:15;;;;;;;3.10;0.90;;;25.50;99.90;;;;;;5095239;28;20056;-79
2022/03/21 02:12:42;;;;;;;4.00;1.00;;;25.40;99.90;;;;;;5095159;28;20024;-79
2022/03/21 02:15:11;;;;;;;6.22;1.33;;;25.60;99.90;;;;;;5095182;28;20519;-78
2022/03/21 02:17:41;;;;;;;4.57;1.27;;;25.90;99.90;;;;;;5093696;28;20056;-77
2022/03/21 02:20:09;;;;;;;3.88;1.15;;;26.20;99.90;;;;;;5094701;28;20081;-78
2022/03/21 02:23:15;;;;;;;4.15;1.38;;;26.70;99.90;;;;;;5093837;28;20115;-79
2022/03/21 02:25:43;;;;;;;6.30;1.35;;;26.90;99.90;;;;;;5084951;28;20496;-79
2022/03/21 02:28:13;;;;;;;4.43;1.20;;;27.00;99.90;;;;;;5077498;28;20070;-79
2022/03/21 02:30:46;;;;;;;6.47;1.05;;;26.50;99.90;;;;;;5094360;28;20508;-80
2022/03/21 02:33:16;;;;;;;4.90;0.90;;;25.90;99.90;;;;;;5093846;28;20555;-79
2022/03/21 02:35:52;;;;;;;3.95;1.10;;;25.70;99.90;;;;;;5094875;28;20457;-78
2022/03/21 02:38:20;;;;;;;4.22;1.08;;;25.90;99.90;;;;;;5094716;28;20050;-79
2022/03/21 02:40:48;;;;;;;2.95;0.80;;;26.30;99.90;;;;;;5094807;28;20024;-80
2022/03/21 02:43:18;;;;;;;5.65;1.40;;;26.50;99.90;;;;;;5094709;28;20057;-79
2022/03/21 02:45:46;;;;;;;4.25;0.95;;;26.30;99.90;;;;;;5094584;28;20034;-79
2022/03/21 02:48:14;;;;;;;4.65;1.30;;;26.60;99.90;;;;;;5093013;28;20021;-76
2022/03/21 02:50:59;;;;;;;5.07;1.23;;;26.70;99.90;;;;;;5094470;28;20035;-77
2022/03/21 02:53:30;;;;;;;6.78;1.20;;;26.50;99.90;;;;;;5093112;28;20020;-77
2022/03/21 02:55:58;;;;;;;3.65;0.90;;;26.80;99.90;;;;;;5094410;28;20028;-77
2022/03/21 02:58:26;;;;;;;4.45;1.42;;;26.60;99.90;;;;;;5092809;28;20396;-77
2022/03/21 03:00:53;;;;;;;9.07;1.70;;;27.20;99.90;;;;;;5092641;28;20587;-77
2022/03/21 03:03:20;;;;;;;8.20;1.88;;;27.30;99.90;;;;;;5093973;28;20095;-76
2022/03/21 03:05:48;;;;;;;8.85;2.00;;;26.90;99.90;;;;;;5094100;28;20140;-76
2022/03/21 03:08:15;;;;;;;5.28;1.20;;;27.20;99.90;;;;;;5093893;28;20437;-76
2022/03/21 03:10:42;;;;;;;4.43;1.08;;;26.90;99.90;;;;;;5093899;28;20028;-77
2022/03/21 03:13:10;;;;;;;5.50;1.10;;;26.60;99.90;;;;;;5094031;28;20053;-76
2022/03/21 03:15:38;;;;;;;7.80;1.25;;;26.20;99.90;;;;;;5092537;28;20024;-76
2022/03/21 03:18:05;;;;;;;5.32;1.00;;;26.70;99.90;;;;;;5075619;28;20040;-76
2022/03/21 03:20:33;;;;;;;4.57;1.20;;;26.60;99.90;;;;;;5092537;28;20032;-76
2022/03/21 03:23:02;;;;;;;6.40;1.02;;;26.40;99.90;;;;;;5094244;28;20475;-77
2022/03/21 03:25:29;;;;;;;5.93;1.10;;;26.20;99.90;;;;;;5092539;28;20016;-76
2022/03/21 03:27:57;;;;;;;4.00;1.10;;;26.60;99.90;;;;;;5093674;28;20024;-76
2022/03/21 03:30:25;;;;;;;6.53;1.17;;;26.70;99.90;;;;;;5075252;28;20506;-76
2022/03/21 03:32:52;;;;;;;7.03;1.65;;;26.90;99.90;;;;;;5094113;28;20478;-77
2022/03/21 03:35:20;;;;;;;5.25;1.20;;;27.10;99.90;;;;;;5093333;28;20044;-77
2022/03/21 03:37:48;;;;;;;5.25;1.33;;;26.50;99.90;;;;;;5092595;28;20547;-78
2022/03/21 03:40:15;;;;;;;5.05;1.10;;;26.60;99.90;;;;;;5093480;28;20056;-76
2022/03/21 03:42:44;;;;;;;;;;;26.90;99.90;;;;;;5093742;28;20048;-74
2022/03/21 03:45:13;;;;;;;5.38;1.10;;;27.50;99.90;;;;;;5091888;28;19953;-75
2022/03/21 03:47:42;;;;;;;7.00;2.00;;;27.50;99.90;;;;;;5093324;28;20020;-76
2022/03/21 03:50:10;;;;;;;8.20;1.30;;;26.90;99.90;;;;;;5093209;28;20024;-75
2022/03/21 03:52:37;;;;;;;6.20;1.40;;;26.80;99.90;;;;;;5091833;28;20028;-76
2022/03/21 03:55:06;;;;;;;5.00;0.93;;;26.70;99.90;;;;;;5091394;28;20047;-75
2022/03/21 03:57:33;;;;;;;6.28;1.30;;;27.00;99.90;;;;;;5091832;28;20077;-76
2022/03/21 04:00:01;;;;;;;3.88;0.77;;;27.10;99.90;;;;;;5091460;28;20492;-75
2022/03/21 04:02:28;;;;;;;3.70;1.02;;;26.30;99.90;;;;;;5091807;28;20020;-76
2022/03/21 04:04:55;;;;;;;4.95;0.98;;;26.80;99.90;;;;;;5092070;28;20024;-76
2022/03/21 04:07:24;;;;;;;3.40;0.90;;;27.00;99.90;;;;;;5092039;28;20024;-76
2022/03/21 04:09:52;;;;;;;4.57;1.10;;;27.20;99.90;;;;;;5093144;28;20406;-76
2022/03/21 04:12:19;;;;;;;4.95;1.00;;;27.70;99.90;;;;;;5093256;28;20425;-76
2022/03/21 04:14:48;;;;;;;5.68;1.40;;;27.90;99.90;;;;;;5092889;28;20101;-75
2022/03/21 04:17:15;;;;;;;6.05;1.10;;;28.20;99.90;;;;;;5091472;28;20062;-75
2022/03/21 04:19:42;;;;;;;3.28;0.95;;;28.30;99.90;;;;;;5092610;28;20044;-75
2022/03/21 04:22:10;;;;;;;5.85;1.20;;;28.20;99.90;;;;;;5091884;28;20020;-76
2022/03/21 04:24:38;;;;;;;4.13;1.10;;;28.00;99.90;;;;;;5091481;28;20115;-76
2022/03/21 04:27:05;;;;;;;4.40;1.10;;;27.90;99.90;;;;;;5092541;28;20044;-74
2022/03/21 04:29:33;;;;;;;3.17;0.98;;;28.00;99.90;;;;;;5091221;28;20036;-74
2022/03/21 04:32:01;;;;;;;6.70;1.38;;;28.30;99.90;;;;;;5092462;28;20103;-74
2022/03/21 04:34:28;;;;;;;2.53;0.68;;;28.40;99.90;;;;;;5091039;28;20070;-75
2022/03/21 04:36:56;;;;;;;4.50;1.02;;;27.90;99.90;;;;;;5091196;28;20434;-75
2022/03/21 04:39:23;;;;;;;5.30;1.10;;;27.70;99.90;;;;;;5091074;28;20032;-74
2022/03/21 04:41:51;;;;;;;4.70;1.27;;;27.60;99.90;;;;;;5092422;28;20048;-75
2022/03/21 04:44:18;;;;;;;4.03;1.00;;;27.50;99.90;;;;;;5091133;28;20020;-75
2022/03/21 04:46:45;;;;;;;2.83;0.85;;;27.30;99.90;;;;;;5091020;28;20035;-75
2022/03/21 04:49:13;;;;;;;3.55;0.90;;;27.40;99.90;;;;;;5091114;28;20169;-75
2022/03/21 04:51:40;;;;;;;5.28;1.10;;;27.60;99.90;;;;;;5090950;28;20028;-75
2022/03/21 04:54:07;;;;;;;6.00;0.90;;;27.00;99.90;;;;;;5091236;28;20032;-75
2022/03/21 04:56:35;;;;;;;3.40;0.90;;;26.90;99.90;;;;;;5091228;28;20020;-74
2022/03/21 04:59:02;;;;;;;6.00;1.75;;;27.00;99.90;;;;;;5092298;28;20028;-75
2022/03/21 05:01:30;;;;;;;4.10;1.20;;;27.30;99.90;;;;;;5090938;28;20024;-76
2022/03/21 05:03:57;;;;;;;5.35;1.05;;;27.40;99.90;;;;;;5092211;28;20418;-75
2022/03/21 05:06:25;;;;;;;4.57;1.30;;;27.40;99.90;;;;;;5092869;28;20381;-76
2022/03/21 05:08:52;;;;;;;8.25;1.00;;;26.80;99.90;;;;;;5094130;28;20361;-75
2022/03/21 05:11:19;;;;;;;6.38;1.00;;;26.50;99.90;;;;;;5095958;28;20461;-75
2022/03/21 05:13:47;;;;;;;5.57;1.00;;;26.00;99.90;;;;;;5096342;28;20099;-75
2022/03/21 05:16:15;;;;;;;3.20;0.90;;;25.80;99.90;;;;;;5095021;28;20422;-76
2022/03/21 05:18:43;;;;;;;4.68;1.10;;;25.60;99.90;;;;;;5096697;28;20026;-79
2022/03/21 05:21:11;;;;;;;4.78;1.17;;;25.90;99.90;;;;;;5095340;28;20020;-76
2022/03/21 05:31:54;;;;;;;6.00;1.30;;;26.50;99.90;;;;;;5096981;28;20157;-77
2022/03/21 05:37:07;;;;;;;3.90;0.90;;;26.30;99.90;;;;;;5094837;28;20052;-76
2022/03/21 05:40:31;;;;;;;4.47;1.60;;;26.40;99.90;;;;;;5095816;28;20027;-76
2022/03/21 05:42:21;;;;;;;5.65;1.02;;;26.40;99.90;;;;;;5096115;28;20154;-76
2022/03/21 05:44:49;;;;;;;2.50;0.90;;;26.40;99.90;;;;;;5095856;28;20365;-78
2022/03/21 05:47:16;;;;;;;5.97;1.00;;;26.20;99.90;;;;;;5096781;28;20016;-78
2022/03/21 05:49:43;;;;;;;5.32;1.13;;;26.30;99.90;;;;;;5095953;28;20498;-76
2022/03/21 05:52:11;;;;;;;4.35;1.10;;;26.20;99.90;;;;;;5094680;28;20039;-76
2022/03/21 05:54:38;;;;;;;6.00;1.00;;;26.00;99.90;;;;;;5094440;28;20024;-75
2022/03/21 05:57:06;;;;;;;3.95;0.90;;;25.90;99.90;;;;;;5094612;28;20066;-77
2022/03/21 06:02:18;;;;;;;3.88;0.90;;;25.90;99.90;;;;;;5096525;28;20069;-77
2022/03/21 06:04:45;;;;;;;4.05;0.80;;;25.90;99.90;;;;;;5094249;28;20111;-77
2022/03/21 06:07:15;;;;;;;2.75;0.70;;;25.70;99.90;;;;;;5094070;28;20480;-77
2022/03/21 06:09:42;;;;;;;3.13;0.85;;;25.90;99.90;;;;;;5096396;28;20024;-77
2022/03/21 06:12:10;;;;;;;3.63;0.90;;;25.70;99.90;;;;;;5095205;28;20024;-77
2022/03/21 06:14:37;;;;;;;4.60;1.00;;;25.70;99.90;;;;;;5095150;28;20031;-77
2022/03/21 06:17:04;;;;;;;4.18;0.95;;;25.70;99.90;;;;;;5094452;28;20035;-77
2022/03/21 06:19:32;;;;;;;6.75;1.13;;;25.70;99.90;;;;;;5094604;28;20481;-76
2022/03/21 06:21:59;;;;;;;4.93;0.95;;;25.50;99.90;;;;;;5095463;28;20016;-78
2022/03/21 06:24:27;;;;;;;4.15;0.60;;;25.50;99.90;;;;;;5095012;28;20083;-78
2022/03/21 06:26:54;;;;;;;4.47;0.90;;;25.30;99.90;;;;;;5095776;28;20020;-78
2022/03/21 06:29:21;;;;;;;5.05;0.98;;;25.30;99.90;;;;;;5096682;28;20111;-76
2022/03/21 06:31:49;;;;;;;4.97;1.02;;;25.30;99.90;;;;;;5097037;28;20024;-75
2022/03/21 06:34:16;;;;;;;6.88;1.25;;;25.10;99.90;;;;;;5096090;28;20062;-76
2022/03/21 06:36:43;;;;;;;5.22;1.42;;;25.00;99.90;;;;;;5100374;28;20020;-77
2022/03/21 06:39:11;;;;;;;3.58;0.90;;;25.00;99.90;;;;;;5095140;28;20526;-77
2022/03/21 06:41:38;;;;;;;5.55;2.00;;;25.00;99.90;;;;;;5100975;28;20483;-76
2022/03/21 06:44:06;;;;;;;7.57;3.88;;;24.90;99.90;;;;;;5099097;28;20016;-78
2022/03/21 06:46:33;;;;;;;4.10;1.30;;;24.80;99.90;;;;;;5098917;28;20103;-77
2022/03/21 06:49:01;;;;;;;8.40;2.08;;;24.60;99.90;;;;;;5096825;28;20023;-77
2022/03/21 06:51:29;;;;;;;3.95;1.02;;;24.60;99.90;;;;;;5099042;28;20045;-77
2022/03/21 06:53:59;;;;;;;4.70;0.90;;;24.50;99.90;;;;;;5102104;28;20028;-77
2022/03/21 06:56:26;;;;;;;4.60;1.17;;;24.30;99.90;;;;;;5099715;28;20016;-78
2022/03/21 06:58:54;;;;;;;4.90;1.30;;;24.20;99.90;;;;;;5099594;28;20020;-77
2022/03/21 07:01:21;;;;;;;5.55;1.23;;;24.10;99.90;;;;;;5099219;28;20024;-77
2022/03/21 07:03:49;;;;;;;9.05;2.28;;;24.10;99.90;;;;;;5100852;28;20051;-78
2022/03/21 07:06:17;;;;;;;6.55;2.10;;;24.10;99.90;;;;;;5098955;28;20108;-77
2022/03/21 07:08:51;;;;;;;6.85;1.33;;;24.30;99.90;;;;;;5099944;28;20038;-77
2022/03/21 07:11:20;;;;;;;6.13;1.23;;;24.20;99.90;;;;;;5098183;28;20039;-77
2022/03/21 07:13:47;;;;;;;3.80;0.93;;;24.30;99.90;;;;;;5099165;28;20020;-78
2022/03/21 07:16:16;;;;;;;3.83;1.15;;;24.20;99.90;;;;;;5098004;28;20016;-77
2022/03/21 07:18:48;;;;;;;4.53;0.90;;;24.30;99.90;;;;;;5099717;28;20043;-77
2022/03/21 07:21:16;;;;;;;7.38;1.02;;;24.60;99.90;;;;;;5099616;28;20032;-77
2022/03/21 07:23:44;;;;;;;5.50;0.98;;;25.00;99.90;;;;;;5103035;28;20024;-77
2022/03/21 07:26:12;;;;;;;6.45;1.05;;;25.10;99.90;;;;;;5101178;28;20101;-77
2022/03/21 07:28:40;;;;;;;5.15;1.83;;;25.10;99.90;;;;;;5097193;28;20031;-78
2022/03/21 07:31:10;;;;;;;4.20;1.02;;;24.60;99.90;;;;;;5096645;28;20023;-77
2022/03/21 07:33:39;;;;;;;4.88;1.13;;;24.10;99.90;;;;;;5096317;28;20024;-77
2022/03/21 07:36:26;;;;;;;8.65;1.17;;;23.70;99.90;;;;;;5096406;28;20390;-77
2022/03/21 07:38:54;;;;;;;6.70;1.30;;;23.30;99.90;;;;;;5095066;28;20016;-78
2022/03/21 07:41:22;;;;;;;3.40;0.70;;;23.10;99.90;;;;;;5096214;28;20019;-77
2022/03/21 07:43:50;;;;;;;5.35;1.15;;;23.00;99.90;;;;;;5096935;28;20032;-77
2022/03/21 07:49:02;;;;;;;4.57;1.42;;;22.60;99.90;;;;;;5095744;28;20035;-77
2022/03/21 07:51:30;;;;;;;6.63;1.35;;;22.40;99.90;;;;;;5095331;28;20022;-77
2022/03/21 07:53:57;;;;;;;4.95;1.17;;;22.30;99.90;;;;;;5095611;28;20530;-77
2022/03/21 07:56:25;;;;;;;6.15;1.20;;;22.30;99.90;;;;;;5095727;28;20024;-77
2022/03/21 07:58:52;;;;;;;4.20;1.38;;;22.20;99.90;;;;;;5094380;28;20020;-77
2022/03/21 08:01:19;;;;;;;3.63;1.20;;;22.00;99.90;;;;;;5094344;28;20024;-77
2022/03/21 08:03:47;;;;;;;6.47;1.48;;;21.90;99.90;;;;;;5094407;28;20085;-77
2022/03/21 08:06:14;;;;;;;8.05;1.52;;;21.90;99.90;;;;;;5095109;28;20095;-76
2022/03/21 08:08:42;;;;;;;6.25;1.27;;;21.80;99.90;;;;;;5095332;28;20084;-76
2022/03/21 08:11:09;;;;;;;2.95;1.02;;;21.70;99.90;;;;;;5093865;28;20024;-76
2022/03/21 08:13:37;;;;;;;5.22;1.20;;;21.60;99.90;;;;;;5094350;28;20389;-75
2022/03/21 08:16:05;;;;;;;4.55;1.00;;;21.50;99.90;;;;;;5094809;28;20048;-76
2022/03/21 08:18:32;;;;;;;3.70;1.10;;;21.50;99.90;;;;;;5095517;28;20039;-78
2022/03/21 08:21:00;;;;;;;5.10;1.33;;;21.40;99.90;;;;;;5095968;28;20540;-76
2022/03/21 08:23:28;;;;;;;6.32;1.60;;;21.30;99.90;;;;;;5096667;28;20024;-76
2022/03/21 08:25:57;;;;;;;5.30;1.23;;;21.20;99.90;;;;;;5094268;28;20107;-77
2022/03/21 08:28:25;;;;;;;3.80;0.95;;;21.10;99.90;;;;;;5095467;28;20012;-76
2022/03/21 08:30:53;;;;;;;4.85;1.17;;;21.10;99.90;;;;;;5095423;28;20059;-75
2022/03/21 08:33:20;;;;;;;5.03;0.90;;;21.00;99.90;;;;;;5095338;28;20103;-76
2022/03/21 08:35:48;;;;;;;5.32;1.42;;;21.00;99.90;;;;;;5094977;28;20059;-77
2022/03/21 08:38:16;;;;;;;3.83;0.98;;;20.90;99.90;;;;;;5093495;28;20028;-76
2022/03/21 08:40:43;;;;;;;4.50;1.27;;;20.80;99.90;;;;;;5094348;28;20088;-75
2022/03/21 08:43:11;;;;;;;6.10;1.38;;;20.80;99.90;;;;;;5098701;28;20403;-76
2022/03/21 08:45:40;;;;;;;5.72;1.45;;;20.70;99.90;;;;;;5100900;28;20024;-75
2022/03/21 08:48:09;;;;;;;4.85;1.23;;;20.70;99.90;;;;;;5101418;28;20016;-76
2022/03/21 08:50:37;;;;;;;4.97;1.90;;;20.60;99.90;;;;;;5083434;28;20098;-76
2022/03/21 08:53:05;;;;;;;7.10;1.70;;;20.60;99.90;;;;;;5100357;28;20392;-76
2022/03/21 08:55:32;;;;;;;6.43;1.38;;;20.50;99.90;;;;;;5101573;28;20498;-76
2022/03/21 08:58:00;;;;;;;4.65;1.35;;;20.40;99.90;;;;;;5100800;28;20119;-76
2022/03/21 09:00:27;;;;;;;5.15;1.20;;;20.40;99.90;;;;;;5100019;28;20024;-76
2022/03/21 09:02:55;;;;;;;3.03;1.27;;;20.30;99.90;;;;;;5100617;28;20024;-75
2022/03/21 09:05:23;;;;;;;6.25;1.45;;;20.20;99.90;;;;;;5101578;28;20455;-76
2022/03/21 09:07:50;;;;;;;3.65;1.38;;;20.20;99.90;;;;;;5099348;28;20065;-76
2022/03/21 09:10:18;;;;;;;7.43;1.13;;;20.10;99.90;;;;;;5104103;28;20046;-76
2022/03/21 09:12:45;;;;;;;3.10;1.02;;;20.10;99.90;;;;;;5105442;28;20024;-77
2022/03/21 09:15:13;;;;;;;3.78;0.95;;;20.00;99.90;;;;;;5102176;28;20052;-76
2022/03/21 09:17:41;;;;;;;3.08;1.10;;;19.90;99.90;;;;;;5102659;28;20028;-77
2022/03/21 09:20:09;;;;;;;8.10;1.40;;;19.90;99.90;;;;;;5101972;28;20468;-77
2022/03/21 09:22:36;;;;;;;4.55;1.48;;;19.80;99.90;;;;;;5099058;28;20107;-77
2022/03/21 09:25:04;;;;;;;5.28;1.13;;;19.80;99.90;;;;;;5098958;28;20051;-77
2022/03/21 09:27:31;;;;;;;2.65;0.93;;;19.80;99.90;;;;;;5100538;28;20082;-77
2022/03/21 09:29:59;;;;;;;4.13;1.23;;;19.70;99.90;;;;;;5098906;28;20024;-76
2022/03/21 09:32:26;;;;;;;4.53;1.75;;;19.80;99.90;;;;;;5099950;28;20097;-76
2022/03/21 09:34:54;;;;;;;4.25;1.15;;;19.80;99.90;;;;;;5098722;28;20102;-76
2022/03/21 09:37:21;;;;;;;3.92;1.08;;;19.80;99.90;;;;;;5100562;28;20381;-77
2022/03/21 09:39:49;;;;;;;5.78;1.55;;;19.70;99.90;;;;;;5098230;28;20342;-77
2022/03/21 09:42:17;;;;;;;5.38;1.33;;;19.60;99.90;;;;;;5098412;28;20020;-77
2022/03/21 09:44:53;;;;;;;5.13;1.20;;;19.60;99.90;;;;;;5098250;28;20020;-76
2022/03/21 09:50:12;;;;;;;4.50;1.20;;;19.60;99.90;;;;;;5099909;28;20034;-77
2022/03/21 09:52:41;;;;;;;5.00;1.58;;;19.50;99.90;;;;;;5098875;28;20020;-78
2022/03/21 09:55:09;;;;;;;3.42;0.93;;;19.50;99.90;;;;;;5077462;28;20024;-77
2022/03/21 09:57:38;;;;;;;4.10;1.10;;;19.50;99.90;;;;;;5094741;28;20030;-77
2022/03/21 10:00:06;;;;;;;4.38;0.80;;;19.50;99.90;;;;;;5094972;28;20028;-77
2022/03/21 10:02:35;;;;;;;3.08;0.70;;;19.50;99.90;;;;;;5094755;28;20559;-77
2022/03/21 10:05:03;;;;;;;4.55;1.08;;;19.50;99.90;;;;;;5095201;28;20024;-78
2022/03/21 10:07:31;;;;;;;4.50;1.23;;;19.50;99.90;;;;;;5096211;28;20384;-77
2022/03/21 10:10:09;;;;;;;3.97;1.30;;;19.40;99.90;;;;;;5095657;28;20673;-75
2022/03/21 10:12:37;;;;;;;4.28;1.35;;;19.40;99.90;;;;;;5096296;28;20016;-77
2022/03/21 10:15:10;;;;;;;4.22;1.30;;;19.40;99.90;;;;;;5096056;28;20366;-77
2022/03/21 10:17:40;;;;;;;3.72;1.20;;;19.40;99.90;;;;;;5096168;28;20055;-77
2022/03/21 10:20:11;;;;;;;3.78;1.10;;;19.40;99.90;;;;;;5095207;28;20024;-77
2022/03/21 10:22:43;;;;;;;3.25;1.10;;;19.40;99.90;;;;;;5094890;28;20028;-78
2022/03/21 10:25:16;;;;;;;3.60;1.30;;;19.30;99.90;;;;;;5078466;28;20369;-77
2022/03/21 10:27:45;;;;;;;8.38;1.40;;;19.20;99.90;;;;;;5094495;28;20484;-77
2022/03/21 10:30:15;;;;;;;5.28;2.08;;;19.20;99.90;;;;;;5095901;28;20043;-77
2022/03/21 10:32:46;;;;;;;2.97;1.15;;;19.20;99.90;;;;;;5096160;28;20031;-77
2022/03/21 10:35:15;;;;;;;2.88;1.20;;;19.10;99.90;;;;;;5093996;28;20381;-77
2022/03/21 10:37:53;;;;;;;3.65;1.23;;;19.10;99.90;;;;;;5095563;28;20028;-77
2022/03/21 10:40:27;;;;;;;4.35;1.40;;;19.10;99.90;;;;;;5094570;28;20107;-77
2022/03/21 10:43:00;;;;;;;5.18;1.63;;;19.00;99.90;;;;;;5095823;28;20534;-76
2022/03/21 10:45:41;;;;;;;4.15;1.63;;;19.00;99.90;;;;;;5094137;28;20373;-77
2022/03/21 10:48:15;;;;;;;4.07;1.55;;;18.90;99.90;;;;;;5093848;28;20035;-77
2022/03/21 10:50:46;;;;;;;4.65;1.45;;;18.90;99.90;;;;;;5094092;28;20039;-76
2022/03/21 10:53:21;;;;;;;2.40;1.10;;;18.80;99.90;;;;;;5095031;28;20031;-77
2022/03/21 10:55:58;;;;;;;3.85;1.42;;;18.80;99.90;;;;;;5093986;28;20034;-76
2022/03/21 10:58:40;;;;;;;5.00;1.48;;;18.80;99.90;;;;;;5093745;28;20476;-77
2022/03/21 11:01:19;;;;;;;4.25;1.38;;;18.70;99.90;;;;;;5095210;28;20050;-76
2022/03/21 11:03:51;;;;;;;4.22;1.30;;;18.70;99.90;;;;;;5093781;28;20024;-76
2022/03/21 11:06:19;;;;;;;6.00;1.45;;;18.70;99.90;;;;;;5093490;28;20016;-76
2022/03/21 11:08:50;;;;;;;4.95;1.30;;;18.70;99.90;;;;;;5093346;28;20024;-77
2022/03/21 11:11:16;;;;;;;;;;;18.70;99.90;;;;;;5095137;28;20433;-76
2022/03/21 11:13:45;;;;;;;7.35;1.75;;;18.60;99.90;;;;;;5093313;28;19930;-77
2022/03/21 11:16:17;;;;;;;5.80;1.67;;;18.70;99.90;;;;;;5094517;28;20070;-77
2022/03/21 11:18:47;;;;;;;6.20;1.50;;;18.70;99.90;;;;;;5093410;28;20162;-77
2022/03/21 11:21:15;;;;;;;5.07;2.00;;;18.60;99.90;;;;;;5093357;28;20032;-77
2022/03/21 11:23:43;;;;;;;5.30;1.75;;;18.60;99.90;;;;;;5094817;28;20365;-77
2022/03/21 11:26:37;;;;;;;3.75;1.48;;;18.50;99.90;;;;;;5093012;28;20086;-78
2022/03/21 11:29:41;;;;;;;4.68;1.98;;;18.40;99.90;;;;;;5094304;28;20099;-77
2022/03/21 11:32:18;;;;;;;4.20;1.48;;;18.30;99.90;;;;;;5092722;28;20034;-78
2022/03/21 11:34:51;;;;;;;5.50;2.05;;;18.30;99.90;;;;;;5094123;28;20111;-77
2022/03/21 11:37:47;;;;;;;4.82;1.45;;;18.30;99.90;;;;;;5094452;28;20030;-77
2022/03/21 11:40:31;;;;;;;5.10;1.60;;;18.30;99.90;;;;;;5093638;28;20514;-77
2022/03/21 11:43:21;;;;;;;5.68;1.88;;;18.30;99.90;;;;;;5092170;28;20500;-77
2022/03/21 11:45:55;;;;;;;5.88;1.80;;;18.30;99.90;;;;;;5092507;28;20016;-77
2022/03/21 11:48:25;;;;;;;4.00;1.50;;;18.20;99.90;;;;;;5092597;28;20484;-77
2022/03/21 11:51:10;;;;;;;6.35;1.77;;;18.10;99.90;;;;;;5093663;28;20091;-77
2022/03/21 11:53:49;;;;;;;2.65;1.30;;;18.10;99.90;;;;;;5075714;28;20032;-77
2022/03/21 11:56:18;;;;;;;5.50;1.50;;;18.10;99.90;;;;;;5092129;28;20464;-77
2022/03/21 11:58:49;;;;;;;6.53;1.98;;;18.00;99.90;;;;;;5092047;28;20028;-77
2022/03/21 12:01:29;;;;;;;6.03;1.70;;;18.00;99.90;;;;;;5091976;28;20541;-77
2022/03/21 12:04:16;;;;;;;8.00;2.22;;;18.00;99.90;;;;;;5093145;28;20047;-77
2022/03/21 12:06:45;;;;;;;6.07;2.10;;;18.00;99.90;;;;;;5093025;28;20020;-77
2022/03/21 12:09:13;;;;;;;5.15;1.83;;;18.00;99.90;;;;;;5091761;28;20444;-77
2022/03/21 12:11:41;;;;;;;6.32;1.85;;;18.00;99.90;;;;;;5093074;28;20024;-77
2022/03/21 12:14:22;;;;;;;6.55;1.85;;;18.00;99.90;;;;;;5093575;28;20502;-77
2022/03/21 12:17:13;;;;;;;4.03;1.50;;;17.90;99.90;;;;;;5093087;28;20055;-77
2022/03/21 12:19:52;;;;;;;;;;;17.90;99.90;;;;;;5093914;28;20020;-78
2022/03/21 12:22:34;;;;;;;4.40;1.65;;;17.80;99.90;;;;;;5093221;28;19957;-75
2022/03/21 12:25:15;;;;;;;5.05;1.42;;;17.80;99.90;;;;;;5093180;28;20042;-77
2022/03/21 12:27:46;;;;;;;;;;;17.70;99.90;;;;;;5093484;28;20039;-77
2022/03/21 12:32:51;;;;;;;5.47;1.50;;;17.70;99.90;;;;;;5092951;28;20373;-77
2022/03/21 12:35:45;;;;;;;5.88;1.85;;;17.70;99.90;;;;;;5092577;28;20046;-77
2022/03/21 12:38:26;;;;;;;4.20;1.60;;;17.70;99.90;;;;;;5091548;28;20028;-77
2022/03/21 12:41:03;;;;;;;3.17;1.73;;;17.70;99.90;;;;;;5092771;28;20024;-77
2022/03/21 12:43:49;;;;;;;5.53;1.80;;;17.70;99.90;;;;;;5092753;28;20481;-76
2022/03/21 12:46:19;;;;;;;3.45;1.60;;;17.60;99.90;;;;;;5091647;28;20027;-77
2022/03/21 12:48:48;;;;;;;3.90;1.63;;;17.60;99.90;;;;;;5091287;28;20052;-76
2022/03/21 12:51:26;;;;;;;4.65;1.92;;;17.60;99.90;;;;;;5091637;28;20384;-76
2022/03/21 12:53:56;;;;;;;5.38;1.90;;;17.60;99.90;;;;;;5091395;28;20058;-76
2022/03/21 12:56:26;;;;;;;3.17;1.45;;;17.50;99.90;;;;;;5091578;28;20113;-76
2022/03/21 12:59:07;;;;;;;4.82;1.67;;;17.50;99.90;;;;;;5091382;28;20035;-76
2022/03/21 13:01:35;;;;;;;5.63;1.60;;;17.50;99.90;;;;;;5091363;28;20032;-76
2022/03/21 13:12:37;;;;;;;6.45;2.10;;;17.30;99.90;;;;;;5092708;28;20027;-76
2022/03/21 13:15:10;;;;;;;6.13;1.73;;;17.30;99.90;;;;;;5091091;28;20035;-76
2022/03/21 13:17:57;;;;;;;7.38;1.60;;;17.30;99.90;;;;;;5092390;28;20024;-76
2022/03/21 13:22:53;;;;;;;6.15;1.90;;;17.30;99.90;;;;;;5092569;28;20029;-76
2022/03/21 13:25:37;;;;;;;8.02;2.20;;;17.30;99.90;;;;;;5090828;28;20364;-76
2022/03/21 13:28:24;;;;;;;7.20;2.13;;;17.30;99.90;;;;;;5092329;28;20020;-77
2022/03/21 13:31:09;;;;;;;5.75;2.13;;;17.30;99.90;;;;;;5094789;28;20020;-76
2022/03/21 13:33:39;;;;;;;7.03;1.70;;;17.30;99.90;;;;;;5095773;28;20100;-77
2022/03/21 13:36:19;;;;;;;5.88;1.75;;;17.30;99.90;;;;;;5096004;28;20060;-76
2022/03/21 13:38:46;;;;;;;6.78;1.55;;;17.30;99.90;;;;;;5094626;28;20418;-77